Time;durP1;ratioP1;P1;durP2;ratioP2;P2;SDS_P1;SDS_P2;PMS_P1;PMS_P2;Temp;Humidity;BMP_temperature;BMP_pressure;BME280_temperature;BME280_humidity;BME280_pressure;Samples;Min_cycle;Max_cycle;Signal;HPM_P1;HPM_P2
2023/06/17 00:00:37;;;;;;;12.27;8.20;;;17.50;99.90;;;;;;4218766;28;20454;-84
2023/06/17 00:02:38;;;;;;;11.52;7.22;;;17.50;99.90;;;;;;4181597;28;20422;-84
2023/06/17 00:04:39;;;;;;;15.93;7.65;;;17.50;99.90;;;;;;4218485;28;20040;-85
2023/06/17 00:06:39;;;;;;;14.25;7.68;;;17.50;99.90;;;;;;4218139;28;20056;-85
2023/06/17 00:08:40;;;;;;;12.23;7.32;;;17.60;99.90;;;;;;4216807;28;20040;-84
2023/06/17 00:10:41;;;;;;;14.10;7.85;;;17.60;99.90;;;;;;4205064;28;20486;-84
2023/06/17 00:12:43;;;;;;;16.10;7.38;;;17.60;99.90;;;;;;4217316;28;20275;-85
2023/06/17 00:14:44;;;;;;;18.63;8.55;;;17.70;99.90;;;;;;4199574;28;20052;-85
2023/06/17 00:16:45;;;;;;;15.98;7.65;;;17.70;99.90;;;;;;4199542;28;20049;-84
2023/06/17 00:18:47;;;;;;;13.43;7.80;;;17.70;99.90;;;;;;4182464;28;20087;-84
2023/06/17 00:20:52;;;;;;;16.80;8.60;;;17.60;99.90;;;;;;4199538;28;20484;-85
2023/06/17 00:22:53;;;;;;;16.48;8.43;;;17.60;99.90;;;;;;4181445;28;20052;-84
2023/06/17 00:24:54;;;;;;;13.05;8.10;;;17.60;99.90;;;;;;4199950;28;20045;-85
2023/06/17 00:26:54;;;;;;;17.77;9.75;;;17.60;99.90;;;;;;4199922;28;20047;-85
2023/06/17 00:28:56;;;;;;;17.67;8.13;;;17.50;99.90;;;;;;4200088;28;20051;-85
2023/06/17 00:30:57;;;;;;;15.80;9.35;;;17.50;99.90;;;;;;4198842;28;20063;-84
2023/06/17 00:32:57;;;;;;;20.20;9.73;;;17.50;99.90;;;;;;4200625;28;20049;-85
2023/06/17 00:34:58;;;;;;;19.23;9.23;;;17.50;99.90;;;;;;4200177;28;20064;-85
2023/06/17 00:36:59;;;;;;;15.80;8.73;;;17.50;99.90;;;;;;4214781;28;20040;-84
2023/06/17 00:39:00;;;;;;;16.85;7.80;;;17.50;99.90;;;;;;4216293;28;20051;-84
2023/06/17 00:41:00;;;;;;;19.20;8.60;;;17.50;99.90;;;;;;4216596;28;20055;-85
2023/06/17 00:43:01;;;;;;;17.33;9.48;;;17.50;99.90;;;;;;4197991;28;20530;-85
2023/06/17 00:45:02;;;;;;;19.63;9.63;;;17.60;99.90;;;;;;4215343;28;20048;-84
2023/06/17 00:47:05;;;;;;;13.75;8.40;;;17.50;99.90;;;;;;4210883;28;20066;-84
2023/06/17 00:49:09;;;;;;;26.98;9.25;;;17.50;99.90;;;;;;4216168;28;20040;-84
2023/06/17 00:51:10;;;;;;;17.42;8.70;;;17.50;99.90;;;;;;4216572;28;20381;-84
2023/06/17 00:53:10;;;;;;;19.58;8.73;;;17.50;99.90;;;;;;4215605;28;20082;-84
2023/06/17 00:55:12;;;;;;;17.48;8.40;;;17.50;99.90;;;;;;4215012;28;20556;-84
2023/06/17 00:57:13;;;;;;;13.05;7.82;;;17.50;99.90;;;;;;4197579;28;20507;-84
2023/06/17 00:59:14;;;;;;;15.85;8.80;;;17.50;99.90;;;;;;4197932;28;20428;-84
2023/06/17 01:01:17;;;;;;;15.80;8.70;;;17.50;99.90;;;;;;4197997;28;20040;-85
2023/06/17 01:03:18;;;;;;;13.70;8.05;;;17.50;99.90;;;;;;4210319;28;20050;-84
2023/06/17 01:05:19;;;;;;;15.85;8.82;;;17.50;99.90;;;;;;4215129;28;20073;-84
2023/06/17 01:07:42;;;;;;;16.08;8.93;;;17.50;99.90;;;;;;4197869;28;20355;-84
2023/06/17 01:09:50;;;;;;;17.10;8.88;;;17.50;99.90;;;;;;4197387;28;20051;-84
2023/06/17 01:11:55;;;;;;;18.27;8.55;;;17.40;99.90;;;;;;4215752;28;20040;-84
2023/06/17 01:13:56;;;;;;;14.95;8.07;;;17.40;99.90;;;;;;4215350;28;20095;-84
2023/06/17 01:16:00;;;;;;;17.20;9.10;;;17.40;99.90;;;;;;4197061;28;20123;-84
2023/06/17 01:18:04;;;;;;;16.42;8.75;;;17.30;99.90;;;;;;4215486;28;20044;-84
2023/06/17 01:20:06;;;;;;;15.52;8.07;;;17.30;99.90;;;;;;4215391;28;20054;-84
2023/06/17 01:22:10;;;;;;;13.50;8.50;;;17.30;99.90;;;;;;4209604;28;20544;-84
2023/06/17 01:24:12;;;;;;;16.98;8.15;;;17.30;99.90;;;;;;4215764;28;20051;-84
2023/06/17 01:26:13;;;;;;;15.07;9.25;;;17.30;99.90;;;;;;4216599;28;20052;-84
2023/06/17 01:28:20;;;;;;;17.63;8.57;;;17.30;99.90;;;;;;4216429;28;20047;-84
2023/06/17 01:30:20;;;;;;;12.30;7.43;;;17.20;99.90;;;;;;4197680;28;20110;-85
2023/06/17 01:32:21;;;;;;;16.80;7.03;;;17.20;99.90;;;;;;4215918;28;20044;-85
2023/06/17 01:34:27;;;;;;;18.95;7.90;;;17.30;99.90;;;;;;4216754;28;20599;-85
2023/06/17 01:36:31;;;;;;;13.15;7.80;;;17.30;99.90;;;;;;4198488;28;20127;-85
2023/06/17 01:38:41;;;;;;;14.73;8.07;;;17.20;99.90;;;;;;4212063;28;20036;-85
2023/06/17 01:40:43;;;;;;;17.17;6.88;;;17.20;99.90;;;;;;4181397;28;20114;-84
2023/06/17 01:42:48;;;;;;;16.00;8.13;;;16.80;99.90;;;;;;4181188;28;20044;-85
2023/06/17 01:44:49;;;;;;;15.27;7.63;;;17.10;99.90;;;;;;4199575;28;20535;-85
2023/06/17 01:46:50;;;;;;;14.45;8.57;;;17.10;99.90;;;;;;4199043;28;20056;-85
2023/06/17 01:48:53;;;;;;;20.60;8.80;;;17.10;99.90;;;;;;4199180;28;20115;-84
2023/06/17 01:50:55;;;;;;;17.70;8.23;;;17.10;99.90;;;;;;4199177;28;20040;-85
2023/06/17 01:52:55;;;;;;;17.58;8.38;;;17.10;99.90;;;;;;4198799;28;20119;-85
2023/06/17 01:54:57;;;;;;;17.60;8.27;;;17.00;99.90;;;;;;4207022;28;20388;-85
2023/06/17 01:56:58;;;;;;;17.63;9.00;;;17.00;99.90;;;;;;4210252;28;20036;-85
2023/06/17 01:58:58;;;;;;;15.25;8.70;;;17.00;99.90;;;;;;4199284;28;20093;-84
2023/06/17 02:00:59;;;;;;;15.77;8.23;;;17.00;99.90;;;;;;4199285;28;20053;-84
2023/06/17 02:03:00;;;;;;;16.17;8.02;;;16.90;99.90;;;;;;4199107;28;20120;-85
2023/06/17 02:05:02;;;;;;;13.43;8.55;;;16.90;99.90;;;;;;4198996;28;20110;-85
2023/06/17 02:07:03;;;;;;;19.42;10.07;;;16.90;99.90;;;;;;4184409;28;20107;-84
2023/06/17 02:09:04;;;;;;;16.90;8.82;;;16.90;99.90;;;;;;4202308;28;20122;-85
2023/06/17 02:11:05;;;;;;;14.57;8.50;;;16.90;99.90;;;;;;4184566;28;20158;-85
2023/06/17 02:13:09;;;;;;;15.07;8.55;;;16.90;99.90;;;;;;4204197;28;20480;-85
2023/06/17 02:15:10;;;;;;;20.20;9.55;;;16.90;99.90;;;;;;4201776;28;20052;-85
2023/06/17 02:17:13;;;;;;;17.45;8.82;;;16.80;99.90;;;;;;4202702;28;20408;-85
2023/06/17 02:19:15;;;;;;;20.90;9.20;;;16.80;99.90;;;;;;4201533;28;20040;-85
2023/06/17 02:21:16;;;;;;;16.55;9.50;;;16.80;99.90;;;;;;4184444;28;20386;-85
2023/06/17 02:23:16;;;;;;;19.65;9.20;;;16.80;99.90;;;;;;4201739;28;20091;-86
2023/06/17 02:25:18;;;;;;;18.08;8.35;;;16.80;99.90;;;;;;4202181;28;20044;-85
2023/06/17 02:27:19;;;;;;;15.75;8.30;;;16.80;99.90;;;;;;4202649;28;20047;-85
2023/06/17 02:29:20;;;;;;;18.00;9.80;;;16.80;99.90;;;;;;4185424;28;20036;-85
2023/06/17 02:31:22;;;;;;;15.05;8.48;;;16.80;99.90;;;;;;4198720;28;20041;-85
2023/06/17 02:33:22;;;;;;;17.38;7.80;;;16.80;99.90;;;;;;4218238;28;20048;-85
2023/06/17 02:35:23;;;;;;;13.73;7.80;;;16.80;99.90;;;;;;4219678;28;20052;-85
2023/06/17 02:37:24;;;;;;;14.45;9.40;;;16.80;99.90;;;;;;4218984;28;20123;-84
2023/06/17 02:39:25;;;;;;;16.02;8.23;;;16.80;99.90;;;;;;4218582;28;20044;-84
2023/06/17 02:41:27;;;;;;;16.70;7.80;;;16.80;99.90;;;;;;4218552;28;20441;-86
2023/06/17 02:43:27;;;;;;;20.42;7.88;;;16.80;99.90;;;;;;4217780;28;20044;-84
2023/06/17 02:45:28;;;;;;;14.63;7.85;;;16.80;99.90;;;;;;4219003;28;20074;-85
2023/06/17 02:47:29;;;;;;;16.50;8.18;;;16.90;99.90;;;;;;4195780;28;20465;-85
2023/06/17 02:49:30;;;;;;;15.85;8.77;;;16.80;99.90;;;;;;4190024;28;20045;-84
2023/06/17 02:51:32;;;;;;;18.02;8.75;;;16.90;99.90;;;;;;4200941;28;20037;-85
2023/06/17 02:53:32;;;;;;;18.67;8.90;;;16.80;99.90;;;;;;4201209;28;20044;-85
2023/06/17 02:55:33;;;;;;;17.52;9.75;;;16.80;99.90;;;;;;4200966;28;20083;-85
2023/06/17 02:57:35;;;;;;;16.85;9.10;;;16.90;99.90;;;;;;4184383;28;20452;-85
2023/06/17 02:59:37;;;;;;;24.50;9.55;;;16.40;99.90;;;;;;4202705;28;20040;-84
2023/06/17 03:01:40;;;;;;;18.80;10.75;;;16.80;99.90;;;;;;4183364;28;20048;-84
2023/06/17 03:03:41;;;;;;;17.40;9.48;;;16.80;99.90;;;;;;4202814;28;20052;-84
2023/06/17 03:05:43;;;;;;;16.30;9.80;;;16.80;99.90;;;;;;4201250;28;20052;-84
2023/06/17 03:07:45;;;;;;;22.80;10.52;;;16.80;99.90;;;;;;4187565;28;20059;-84
2023/06/17 03:09:46;;;;;;;18.20;11.07;;;16.80;99.90;;;;;;4201551;28;20072;-85
2023/06/17 03:11:47;;;;;;;19.48;10.02;;;16.80;99.90;;;;;;4183763;28;20049;-85
2023/06/17 03:13:47;;;;;;;18.33;9.68;;;16.80;99.90;;;;;;4202072;28;20119;-85
2023/06/17 03:15:48;;;;;;;20.63;10.23;;;16.80;99.90;;;;;;4201013;28;20040;-86
2023/06/17 03:17:50;;;;;;;19.75;10.15;;;16.80;99.90;;;;;;4200047;28;20069;-86
2023/06/17 03:19:51;;;;;;;17.77;10.25;;;16.80;99.90;;;;;;4200551;28;20102;-86
2023/06/17 03:21:52;;;;;;;16.40;10.80;;;16.90;99.90;;;;;;4201607;28;20115;-86
2023/06/17 03:23:53;;;;;;;19.33;11.40;;;16.90;99.90;;;;;;4202174;28;20101;-86
2023/06/17 03:25:54;;;;;;;24.33;11.45;;;16.90;99.90;;;;;;4183661;28;20436;-86
2023/06/17 03:28:00;;;;;;;23.40;11.48;;;16.80;99.90;;;;;;4201161;28;20079;-86
2023/06/17 03:30:02;;;;;;;19.63;10.60;;;16.80;99.90;;;;;;4200511;28;20047;-86
2023/06/17 03:32:03;;;;;;;21.63;11.00;;;16.80;99.90;;;;;;4202044;28;20068;-86
2023/06/17 03:34:04;;;;;;;17.15;10.55;;;16.80;99.90;;;;;;4182660;28;20045;-86
2023/06/17 03:36:06;;;;;;;19.33;10.45;;;16.80;99.90;;;;;;4202017;28;20115;-86
2023/06/17 03:38:15;;;;;;;22.80;10.82;;;16.80;99.90;;;;;;4200155;28;20044;-85
2023/06/17 03:40:16;;;;;;;18.98;10.35;;;16.80;99.90;;;;;;4200185;28;20128;-85
2023/06/17 03:42:17;;;;;;;18.88;9.77;;;16.80;99.90;;;;;;4203076;28;20422;-85
2023/06/17 03:44:17;;;;;;;21.50;10.65;;;16.80;99.90;;;;;;4212299;28;20044;-86
2023/06/17 03:46:20;;;;;;;19.17;11.35;;;16.80;99.90;;;;;;4200132;28;20072;-85
2023/06/17 03:48:20;;;;;;;21.67;11.10;;;16.80;99.90;;;;;;4217120;28;20469;-85
2023/06/17 03:50:21;;;;;;;19.55;10.23;;;16.80;99.90;;;;;;4217852;28;20044;-84
2023/06/17 03:52:24;;;;;;;19.05;10.90;;;16.70;99.90;;;;;;4217164;28;20173;-85
2023/06/17 03:54:25;;;;;;;19.83;10.52;;;16.70;99.90;;;;;;4217295;28;20039;-86
2023/06/17 03:56:26;;;;;;;18.60;11.15;;;16.70;99.90;;;;;;4217723;28;20044;-85
2023/06/17 03:58:28;;;;;;;18.65;10.15;;;16.50;99.90;;;;;;4182647;28;20486;-85
2023/06/17 04:00:28;;;;;;;20.10;10.90;;;16.70;99.90;;;;;;4201137;28;20075;-85
2023/06/17 04:02:29;;;;;;;17.70;9.52;;;16.70;99.90;;;;;;4203228;28;20052;-85
2023/06/17 04:04:32;;;;;;;19.67;9.40;;;16.70;99.90;;;;;;4216721;28;20052;-85
2023/06/17 04:06:34;;;;;;;14.63;9.07;;;16.70;99.90;;;;;;4182209;28;20053;-85
2023/06/17 04:08:39;;;;;;;16.75;9.75;;;16.60;99.90;;;;;;4200239;28;20400;-86
2023/06/17 04:10:40;;;;;;;17.80;9.75;;;16.60;99.90;;;;;;4199176;28;20546;-85
2023/06/17 04:12:42;;;;;;;18.63;10.57;;;16.60;99.90;;;;;;4216564;28;20044;-85
2023/06/17 04:14:42;;;;;;;13.68;9.10;;;16.60;99.90;;;;;;4217346;28;20412;-85
2023/06/17 04:16:49;;;;;;;14.68;9.38;;;16.60;99.90;;;;;;4216565;28;20050;-85
2023/06/17 04:18:50;;;;;;;16.23;8.57;;;16.70;99.90;;;;;;4209014;28;20477;-85
2023/06/17 04:20:56;;;;;;;17.80;9.40;;;16.70;99.90;;;;;;4182285;28;20079;-85
2023/06/17 04:22:56;;;;;;;17.88;8.85;;;16.70;99.90;;;;;;4199387;28;20061;-85
2023/06/17 04:24:57;;;;;;;18.00;9.60;;;16.70;99.90;;;;;;4182910;28;20049;-84
2023/06/17 04:26:58;;;;;;;15.63;8.23;;;16.70;99.90;;;;;;4199060;28;20044;-85
2023/06/17 04:29:02;;;;;;;17.23;8.68;;;16.70;99.90;;;;;;4182860;28;20064;-85
2023/06/17 04:31:02;;;;;;;19.27;9.25;;;16.70;99.90;;;;;;4199703;28;20050;-85
2023/06/17 04:33:04;;;;;;;16.67;9.80;;;16.70;99.90;;;;;;4201782;28;20119;-85
2023/06/17 04:35:06;;;;;;;18.33;8.50;;;16.80;99.90;;;;;;4200291;28;20050;-85
2023/06/17 04:37:06;;;;;;;17.25;9.80;;;16.80;99.90;;;;;;4206512;28;20044;-86
2023/06/17 04:39:07;;;;;;;17.80;9.18;;;16.80;99.90;;;;;;4193848;28;20036;-85
2023/06/17 04:41:08;;;;;;;18.27;9.27;;;16.80;99.90;;;;;;4199398;28;20094;-85
2023/06/17 04:43:09;;;;;;;22.27;10.40;;;16.80;99.90;;;;;;4200573;28;20085;-85
2023/06/17 04:45:10;;;;;;;20.17;10.40;;;16.80;99.90;;;;;;4199502;28;20492;-85
2023/06/17 04:47:12;;;;;;;21.77;11.55;;;16.80;99.90;;;;;;4200566;28;20078;-85
2023/06/17 04:49:13;;;;;;;21.25;11.10;;;16.80;99.90;;;;;;4199385;28;20119;-84
2023/06/17 04:51:17;;;;;;;21.05;10.18;;;16.90;99.90;;;;;;4182079;28;20085;-84
2023/06/17 04:53:22;;;;;;;19.55;10.45;;;16.80;99.90;;;;;;4200294;28;20044;-87
2023/06/17 04:55:23;;;;;;;20.88;10.23;;;16.80;99.90;;;;;;4202154;28;20093;-86
2023/06/17 04:57:24;;;;;;;19.40;11.23;;;16.80;99.90;;;;;;4200375;28;20496;-86
2023/06/17 04:59:25;;;;;;;18.52;10.02;;;16.90;99.90;;;;;;4199108;28;20481;-85
2023/06/17 05:01:25;;;;;;;21.52;12.18;;;16.90;99.90;;;;;;4189914;28;20067;-85
2023/06/17 05:03:26;;;;;;;23.15;12.70;;;16.90;99.90;;;;;;4216093;28;20040;-84
2023/06/17 05:05:27;;;;;;;21.33;12.77;;;17.00;99.90;;;;;;4217296;28;20044;-85
2023/06/17 05:07:28;;;;;;;27.17;14.05;;;16.90;99.90;;;;;;4216767;28;20543;-84
2023/06/17 05:09:28;;;;;;;22.40;12.18;;;16.90;99.90;;;;;;4198493;28;20131;-84
2023/06/17 05:11:29;;;;;;;24.48;12.82;;;16.90;99.90;;;;;;4197772;28;20140;-85
2023/06/17 05:13:30;;;;;;;21.17;13.10;;;16.90;99.90;;;;;;4215589;28;20513;-85
2023/06/17 05:15:30;;;;;;;22.88;13.63;;;16.90;99.90;;;;;;4216470;28;20043;-85
2023/06/17 05:17:31;;;;;;;25.13;13.30;;;16.90;99.90;;;;;;4198043;28;20048;-85
2023/06/17 05:19:32;;;;;;;21.63;13.00;;;16.90;99.90;;;;;;4210993;28;20040;-84
2023/06/17 05:21:33;;;;;;;25.48;12.50;;;16.80;99.90;;;;;;4181405;28;20053;-84
2023/06/17 05:23:34;;;;;;;23.90;10.82;;;16.80;99.90;;;;;;4199826;28;20423;-86
2023/06/17 05:25:35;;;;;;;18.67;10.40;;;16.80;99.90;;;;;;4199253;28;20049;-85
2023/06/17 05:27:38;;;;;;;19.00;9.48;;;16.80;99.90;;;;;;4200467;28;20044;-85
2023/06/17 05:29:39;;;;;;;16.58;8.90;;;16.80;99.90;;;;;;4199964;28;20048;-84
2023/06/17 05:31:39;;;;;;;14.65;9.02;;;16.80;99.90;;;;;;4181372;28;20056;-85
2023/06/17 05:33:40;;;;;;;19.98;9.00;;;16.60;99.90;;;;;;4201029;28;20060;-85
2023/06/17 05:35:41;;;;;;;18.05;8.48;;;16.90;99.90;;;;;;4209235;28;20118;-86
2023/06/17 05:37:42;;;;;;;17.33;8.63;;;16.90;99.90;;;;;;4196291;28;20047;-85
2023/06/17 05:39:44;;;;;;;11.93;7.88;;;17.00;99.90;;;;;;4202382;28;20028;-85
2023/06/17 05:41:45;;;;;;;13.10;8.00;;;16.90;99.90;;;;;;4199142;28;20445;-85
2023/06/17 05:43:48;;;;;;;20.35;8.45;;;17.10;99.90;;;;;;4200376;28;20055;-84
2023/06/17 05:45:48;;;;;;;15.30;8.18;;;17.10;99.90;;;;;;4199725;28;20060;-85
2023/06/17 05:47:50;;;;;;;17.98;8.70;;;17.10;99.90;;;;;;4183003;28;20045;-85
2023/06/17 05:49:50;;;;;;;17.63;8.82;;;17.10;99.90;;;;;;4164897;28;20128;-85
2023/06/17 05:51:51;;;;;;;16.85;8.73;;;17.20;99.90;;;;;;4200624;28;20048;-85
2023/06/17 05:53:53;;;;;;;17.00;7.97;;;17.20;99.90;;;;;;4182176;28;20052;-85
2023/06/17 05:55:54;;;;;;;16.48;7.55;;;17.20;99.90;;;;;;4201285;28;20043;-85
2023/06/17 05:57:55;;;;;;;16.92;8.00;;;17.20;99.90;;;;;;4216106;28;20514;-85
2023/06/17 05:59:55;;;;;;;13.18;8.10;;;17.20;99.90;;;;;;4215761;28;20037;-86
2023/06/17 06:01:56;;;;;;;15.23;7.38;;;17.20;99.90;;;;;;4181943;28;20053;-85
2023/06/17 06:03:57;;;;;;;16.92;8.80;;;17.20;99.90;;;;;;4215324;28;20036;-85
2023/06/17 06:05:58;;;;;;;13.38;7.40;;;17.30;99.90;;;;;;4216585;28;20127;-85
2023/06/17 06:07:58;;;;;;;14.85;7.68;;;17.30;99.90;;;;;;4215330;28;20048;-85
2023/06/17 06:09:59;;;;;;;15.13;7.63;;;17.30;99.90;;;;;;4198072;28;20111;-83
2023/06/17 06:12:00;;;;;;;16.80;8.07;;;17.30;99.90;;;;;;4197409;28;20080;-83
2023/06/17 06:14:01;;;;;;;15.07;8.45;;;17.30;99.90;;;;;;4211935;28;20048;-83
2023/06/17 06:16:03;;;;;;;14.10;7.78;;;17.30;99.90;;;;;;4215384;28;20040;-83
2023/06/17 06:18:05;;;;;;;14.57;8.43;;;17.40;99.90;;;;;;4215206;28;20089;-83
2023/06/17 06:20:06;;;;;;;16.52;8.68;;;17.40;99.90;;;;;;4202334;28;20052;-83
2023/06/17 06:22:07;;;;;;;18.20;10.02;;;17.50;99.90;;;;;;4180463;28;20071;-84
2023/06/17 06:24:08;;;;;;;17.05;9.50;;;17.50;99.90;;;;;;4181807;28;20075;-84
2023/06/17 06:26:08;;;;;;;20.20;9.52;;;17.50;99.90;;;;;;4198458;28;20044;-84
2023/06/17 06:28:09;;;;;;;16.88;8.65;;;17.60;99.90;;;;;;4180727;28;20132;-83
2023/06/17 06:30:12;;;;;;;15.50;9.18;;;17.60;99.90;;;;;;4183081;28;20041;-83
2023/06/17 06:32:13;;;;;;;17.35;9.23;;;17.70;99.90;;;;;;4204042;28;20093;-83
2023/06/17 06:34:13;;;;;;;19.27;9.27;;;17.70;99.90;;;;;;4214837;28;20048;-83
2023/06/17 06:36:14;;;;;;;18.83;8.10;;;17.80;99.90;;;;;;4214655;28;20040;-84
2023/06/17 06:38:15;;;;;;;16.08;7.57;;;17.90;99.90;;;;;;4214788;28;20059;-85
2023/06/17 06:40:16;;;;;;;16.48;8.65;;;18.00;99.90;;;;;;4196951;28;20123;-84
2023/06/17 06:42:17;;;;;;;15.43;8.52;;;18.10;99.90;;;;;;4215716;28;20051;-84
2023/06/17 06:44:19;;;;;;;15.13;8.07;;;18.10;99.90;;;;;;4180505;28;20045;-84
2023/06/17 06:46:20;;;;;;;16.38;7.93;;;18.10;99.90;;;;;;4215554;28;20048;-84
2023/06/17 06:48:20;;;;;;;14.57;8.35;;;18.20;99.90;;;;;;4211365;28;20055;-84
2023/06/17 06:50:21;;;;;;;19.92;9.25;;;18.20;99.90;;;;;;4214465;28;20055;-84
2023/06/17 06:52:24;;;;;;;20.45;9.32;;;18.20;99.90;;;;;;4217695;28;20051;-89
2023/06/17 06:54:26;;;;;;;16.35;9.30;;;18.30;99.90;;;;;;4219433;28;20040;-88
2023/06/17 06:56:26;;;;;;;16.15;8.63;;;18.30;99.90;;;;;;4220128;28;20040;-85
2023/06/17 06:58:27;;;;;;;15.90;8.35;;;18.10;99.90;;;;;;4219572;28;20454;-90
2023/06/17 07:00:28;;;;;;;25.45;10.50;;;18.40;99.90;;;;;;4196512;28;20108;-89
2023/06/17 07:02:43;;;;;;;17.38;9.23;;;18.40;99.90;;;;;;4194944;28;20053;-91
2023/06/17 07:04:44;;;;;;;17.02;8.13;;;18.50;99.90;;;;;;4204110;28;20472;-90
2023/06/17 07:06:47;;;;;;;19.30;7.68;;;18.50;99.90;;;;;;4207196;28;20055;-91
2023/06/17 07:08:50;;;;;;;12.27;7.85;;;18.50;99.90;;;;;;4188136;28;20040;-90
2023/06/17 07:10:52;;;;;;;14.80;8.10;;;18.60;99.90;;;;;;4185544;28;20033;-90
2023/06/17 07:12:54;;;;;;;18.00;7.50;;;18.70;99.90;;;;;;4201839;28;20047;-90
2023/06/17 07:14:56;;;;;;;23.98;8.18;;;18.80;99.90;;;;;;4202999;28;20477;-90
2023/06/17 07:16:57;;;;;;;15.13;8.63;;;18.80;99.90;;;;;;4202469;28;20040;-90
2023/06/17 07:18:58;;;;;;;12.07;7.72;;;18.90;99.90;;;;;;4201536;28;20051;-90
2023/06/17 07:20:58;;;;;;;13.05;7.53;;;18.80;99.90;;;;;;4203573;28;20072;-90
2023/06/17 07:22:59;;;;;;;13.88;7.45;;;18.80;99.90;;;;;;4184270;28;20128;-89
2023/06/17 07:25:01;;;;;;;12.38;7.43;;;18.90;99.90;;;;;;4202418;28;20044;-89
2023/06/17 07:27:02;;;;;;;13.02;7.40;;;19.00;99.90;;;;;;4201966;28;20033;-90
2023/06/17 07:29:03;;;;;;;13.90;7.15;;;19.30;99.90;;;;;;4186169;28;20087;-89
2023/06/17 07:31:04;;;;;;;13.68;7.65;;;19.50;99.90;;;;;;4202666;28;20082;-90
2023/06/17 07:33:06;;;;;;;15.43;7.80;;;19.60;99.90;;;;;;4204344;28;20044;-91
2023/06/17 07:35:07;;;;;;;16.52;8.73;;;19.70;99.90;;;;;;4218821;28;20036;-88
2023/06/17 07:37:09;;;;;;;12.18;7.38;;;19.70;99.90;;;;;;4218765;28;20088;-89
2023/06/17 07:39:10;;;;;;;12.95;7.35;;;19.70;99.90;;;;;;4219186;28;20032;-90
2023/06/17 07:41:11;;;;;;;17.70;7.45;;;19.70;99.90;;;;;;4219615;28;20087;-90
2023/06/17 07:43:13;;;;;;;13.80;7.30;;;19.90;99.90;;;;;;4218898;28;20044;-91
2023/06/17 07:45:15;;;;;;;15.60;7.15;;;20.10;99.90;;;;;;4219720;28;20040;-91
2023/06/17 07:47:18;;;;;;;12.15;7.05;;;20.30;99.90;;;;;;4219435;28;20480;-91
2023/06/17 07:49:19;;;;;;;14.93;7.85;;;20.70;99.90;;;;;;4201476;28;20044;-90
2023/06/17 07:51:21;;;;;;;17.67;6.93;;;21.00;99.90;;;;;;4220596;28;20036;-91
2023/06/17 07:53:23;;;;;;;11.13;7.35;;;21.30;99.90;;;;;;4221725;28;20068;-90
2023/06/17 07:55:25;;;;;;;15.77;7.47;;;21.50;99.90;;;;;;4218798;28;20046;-89
2023/06/17 07:57:26;;;;;;;16.60;7.60;;;21.50;99.90;;;;;;4219597;28;20054;-89
2023/06/17 07:59:28;;;;;;;16.00;7.45;;;21.50;99.90;;;;;;4218820;28;20108;-89
2023/06/17 08:01:29;;;;;;;12.35;6.70;;;21.50;99.90;;;;;;4219847;28;20487;-91
2023/06/17 08:03:31;;;;;;;13.50;6.05;;;21.50;99.90;;;;;;4219125;28;20048;-90
2023/06/17 08:05:36;;;;;;;12.45;6.97;;;21.60;99.90;;;;;;4218726;28;20047;-90
2023/06/17 08:07:36;;;;;;;17.33;7.47;;;21.70;99.90;;;;;;4217797;28;20043;-89
2023/06/17 08:09:37;;;;;;;16.30;6.00;;;21.80;99.90;;;;;;4219691;28;20119;-90
2023/06/17 08:11:39;;;;;;;13.57;6.65;;;21.80;99.90;;;;;;4218190;28;20040;-89
2023/06/17 08:13:40;;;;;;;13.10;7.05;;;22.00;99.90;;;;;;4218318;28;20058;-89
2023/06/17 08:15:40;;;;;;;16.98;6.38;;;22.10;99.90;;;;;;4218619;28;20052;-90
2023/06/17 08:17:42;;;;;;;10.50;5.70;;;22.30;99.90;;;;;;4218488;28;20051;-89
2023/06/17 08:19:50;;;;;;;15.77;7.07;;;22.50;99.90;;;;;;4200677;28;20400;-89
2023/06/17 08:21:51;;;;;;;11.52;5.70;;;22.60;99.90;;;;;;4219442;28;20076;-89
2023/06/17 08:23:52;;;;;;;15.00;5.68;;;22.90;99.90;;;;;;4219336;28;20050;-89
2023/06/17 08:25:53;;;;;;;9.18;5.65;;;23.10;99.90;;;;;;4228504;28;20078;-90
2023/06/17 08:27:56;;;;;;;12.15;6.15;;;23.20;99.90;;;;;;4222582;28;20054;-89
2023/06/17 08:30:02;;;;;;;13.27;5.50;;;23.40;99.90;;;;;;4213685;28;20055;-89
2023/06/17 08:32:03;;;;;;;14.25;5.90;;;23.60;99.90;;;;;;4204227;28;20048;-89
2023/06/17 08:34:04;;;;;;;12.25;5.97;;;23.80;99.90;;;;;;4208156;28;20036;-88
2023/06/17 08:36:07;;;;;;;16.65;6.63;;;23.90;99.90;;;;;;4219175;28;20094;-89
2023/06/17 08:38:09;;;;;;;11.90;6.28;;;23.80;99.90;;;;;;4218505;28;20102;-90
2023/06/17 08:40:13;;;;;;;13.13;5.95;;;23.70;99.90;;;;;;4219120;28;20043;-89
2023/06/17 08:42:15;;;;;;;10.23;5.72;;;23.70;99.90;;;;;;4219178;28;20452;-89
2023/06/17 08:44:24;;;;;;;14.18;6.68;;;23.80;99.90;;;;;;4219849;28;20048;-88
2023/06/17 08:46:26;;;;;;;14.18;6.15;;;24.10;99.90;;;;;;4218867;28;20048;-88
2023/06/17 08:48:27;;;;;;;10.60;6.43;;;24.30;99.90;;;;;;4212217;28;20045;-88
2023/06/17 08:50:30;;;;;;;12.75;5.40;;;24.20;99.90;;;;;;4211596;28;20431;-89
2023/06/17 08:52:34;;;;;;;11.02;5.30;;;24.20;99.90;;;;;;4219276;28;20123;-89
2023/06/17 08:54:40;;;;;;;10.30;5.07;;;24.20;99.90;;;;;;4218319;28;20126;-88
2023/06/17 08:56:43;;;;;;;15.35;5.90;;;24.20;99.90;;;;;;4218439;28;20495;-89
2023/06/17 08:58:47;;;;;;;12.20;5.63;;;24.30;99.90;;;;;;4218904;28;20051;-89
2023/06/17 09:00:50;;;;;;;11.65;5.63;;;24.50;99.90;;;;;;4218716;28;20040;-89
2023/06/17 09:02:54;;;;;;;11.18;5.55;;;24.50;99.90;;;;;;4218469;28;20040;-88
2023/06/17 09:05:02;;;;;;;11.35;5.38;;;24.50;99.90;;;;;;4218123;28;20488;-89
2023/06/17 09:07:03;;;;;;;10.73;5.50;;;24.70;99.90;;;;;;4192442;28;20116;-89
2023/06/17 09:09:12;;;;;;;12.77;6.45;;;24.80;99.90;;;;;;4202543;28;20102;-88
2023/06/17 09:11:14;;;;;;;13.80;4.93;;;25.00;99.90;;;;;;4203683;28;20465;-89
2023/06/17 09:13:14;;;;;;;14.52;7.50;;;25.30;99.90;;;;;;4201344;28;20098;-89
2023/06/17 09:15:17;;;;;;;12.65;6.00;;;25.30;99.90;;;;;;4199758;28;20040;-89
2023/06/17 09:17:29;;;;;;;9.60;5.80;;;25.40;99.90;;;;;;4201309;28;20063;-88
2023/06/17 09:19:31;;;;;;;15.75;6.65;;;25.60;99.90;;;;;;4202111;28;20037;-89
2023/06/17 09:21:34;;;;;;;21.15;5.38;;;25.70;99.90;;;;;;4201274;28;20055;-89
2023/06/17 09:23:36;;;;;;;18.50;6.28;;;25.90;99.90;;;;;;4200990;28;20123;-89
2023/06/17 09:25:39;;;;;;;12.65;6.00;;;26.30;99.90;;;;;;4212296;28;20044;-89
2023/06/17 09:27:52;;;;;;;9.25;5.30;;;26.20;99.50;;;;;;4199096;28;20078;-89
2023/06/17 09:30:11;;;;;;;10.80;5.18;;;26.50;99.00;;;;;;4218057;28;20065;-89
2023/06/17 09:32:13;;;;;;;15.43;5.85;;;26.70;98.60;;;;;;4200848;28;20493;-88
2023/06/17 09:34:15;;;;;;;13.48;6.05;;;26.90;98.60;;;;;;4199872;28;20043;-89
2023/06/17 09:36:17;;;;;;;18.35;5.47;;;27.00;98.20;;;;;;4217663;28;20488;-88
2023/06/17 09:38:19;;;;;;;13.15;5.18;;;27.10;98.10;;;;;;4217051;28;20040;-87
2023/06/17 09:40:26;;;;;;;17.58;6.32;;;27.30;97.70;;;;;;4217028;28;20158;-89
2023/06/17 09:42:32;;;;;;;15.40;5.88;;;27.40;97.30;;;;;;4216410;28;20446;-89
2023/06/17 09:44:36;;;;;;;10.45;5.70;;;27.50;96.90;;;;;;4199597;28;20132;-89
2023/06/17 09:46:46;;;;;;;10.15;5.78;;;27.30;96.50;;;;;;4200218;28;20115;-89
2023/06/17 09:48:50;;;;;;;13.55;6.30;;;27.10;96.80;;;;;;4200588;28;20056;-88
2023/06/17 09:50:55;;;;;;;10.32;5.07;;;27.20;97.00;;;;;;4213918;28;20044;-88
2023/06/17 09:52:58;;;;;;;11.65;5.07;;;27.40;96.60;;;;;;4217965;28;20476;-89
2023/06/17 09:54:59;;;;;;;12.45;5.78;;;27.60;96.30;;;;;;4216479;28;20047;-87
2023/06/17 09:57:02;;;;;;;11.98;5.40;;;27.60;96.10;;;;;;4216167;28;20048;-88
2023/06/17 09:59:03;;;;;;;14.32;6.25;;;27.60;95.90;;;;;;4216221;28;20048;-88
2023/06/17 10:01:06;;;;;;;12.68;6.10;;;27.70;95.70;;;;;;4201886;28;20047;-88
2023/06/17 10:03:09;;;;;;;10.10;5.43;;;27.90;95.60;;;;;;4202364;28;20058;-88
2023/06/17 10:05:10;;;;;;;19.83;5.63;;;28.10;95.40;;;;;;4215300;28;20044;-88
2023/06/17 10:07:14;;;;;;;13.10;5.15;;;28.30;95.20;;;;;;4198632;28;20090;-89
2023/06/17 10:09:15;;;;;;;10.70;5.47;;;28.50;94.70;;;;;;4200566;28;20048;-88
2023/06/17 10:11:20;;;;;;;10.73;5.72;;;28.70;94.10;;;;;;4198676;28;20052;-89
2023/06/17 10:13:22;;;;;;;15.30;6.70;;;28.80;93.20;;;;;;4208762;28;20057;-89
2023/06/17 10:15:25;;;;;;;12.10;5.57;;;28.90;93.10;;;;;;4199654;28;20040;-89
2023/06/17 10:17:28;;;;;;;12.95;6.05;;;29.00;92.70;;;;;;4200758;28;20049;-85
2023/06/17 10:19:36;;;;;;;13.77;6.07;;;28.90;92.40;;;;;;4203037;28;20053;-85
2023/06/17 10:21:42;;;;;;;13.68;6.68;;;29.00;92.20;;;;;;4200247;28;20055;-86
2023/06/17 10:23:47;;;;;;;10.15;5.60;;;29.30;92.20;;;;;;4197682;28;20187;-86
2023/06/17 10:25:49;;;;;;;12.93;5.82;;;29.30;92.00;;;;;;4198067;28;20051;-86